createdAt,value
2022-11-28T00:01:09.360Z,118.38
2022-11-28T00:05:12.175Z,99.57
2022-11-28T00:09:15.185Z,109.75
2022-11-28T00:13:16.892Z,111.45
2022-11-28T00:17:18.817Z,109.25
2022-11-28T00:21:21.093Z,108.25
2022-11-28T00:25:22.895Z,100.55
2022-11-28T00:29:24.856Z,102.75
2022-11-28T00:33:26.851Z,99.35
2022-11-28T00:37:28.493Z,109.15
2022-11-28T00:41:31.234Z,102.70
2022-11-28T00:45:32.993Z,100.43
2022-11-28T00:49:35.040Z,106.40
2022-11-28T00:53:37.461Z,107.75
2022-11-28T00:57:39.340Z,106.43
2022-11-28T01:01:43.916Z,104.70
2022-11-28T01:05:45.957Z,100.38
2022-11-28T01:09:47.707Z,109.30
2022-11-28T01:13:50.339Z,98.20
2022-11-28T01:17:51.998Z,101.68
2022-11-28T01:21:53.952Z,117.65
2022-11-28T01:25:55.854Z,95.40
2022-11-28T01:29:57.731Z,104.10
2022-11-28T01:33:59.633Z,99.00
2022-11-28T01:38:01.693Z,86.07
2022-11-28T01:42:03.831Z,90.30
2022-11-28T01:46:05.919Z,89.55
2022-11-28T01:50:08.394Z,87.60
2022-11-28T01:54:11.467Z,81.88
2022-11-28T01:58:13.853Z,99.95
2022-11-28T02:02:40.068Z,93.00
2022-11-28T02:06:42.659Z,94.88
2022-11-28T02:11:18.137Z,87.53
2022-11-28T02:15:42.706Z,93.15
2022-11-28T02:20:24.314Z,90.88
2022-11-28T02:24:54.874Z,83.22
2022-11-28T02:29:31.707Z,85.32
2022-11-28T02:33:38.338Z,83.78
2022-11-28T02:38:04.617Z,96.38
2022-11-28T02:42:23.004Z,77.93
2022-11-28T02:46:57.742Z,87.93
2022-11-28T02:51:11.619Z,89.28
2022-11-28T02:55:14.603Z,87.43
2022-11-28T02:59:38.228Z,95.38
2022-11-28T03:03:52.908Z,83.90
2022-11-28T03:08:23.391Z,83.55
2022-11-28T03:12:32.538Z,83.53
2022-11-28T03:16:48.899Z,86.95
2022-11-28T03:21:23.512Z,86.20
2022-11-28T03:25:38.235Z,86.55
2022-11-28T03:29:46.428Z,97.40
2022-11-28T03:33:54.555Z,90.00
2022-11-28T03:38:02.844Z,114.80
2022-11-28T03:42:09.052Z,97.47
2022-11-28T03:46:15.667Z,107.95
2022-11-28T03:50:23.354Z,105.07
2022-11-28T03:54:34.053Z,100.33
2022-11-28T03:58:53.613Z,99.45
2022-11-28T04:03:15.538Z,104.75
2022-11-28T04:07:43.408Z,93.80
2022-11-28T04:11:51.767Z,87.65
2022-11-28T04:16:12.949Z,88.57
2022-11-28T04:20:24.589Z,83.97
2022-11-28T04:24:36.458Z,86.55
2022-11-28T04:28:40.061Z,80.97
2022-11-28T04:32:49.431Z,92.22
2022-11-28T04:36:54.013Z,76.30
2022-11-28T04:41:03.165Z,85.82
2022-11-28T04:45:13.813Z,92.10
2022-11-28T04:49:15.976Z,78.53
2022-11-28T04:53:30.521Z,78.75
2022-11-28T04:57:37.391Z,79.68
2022-11-28T05:01:41.917Z,83.68
2022-11-28T05:05:47.292Z,75.47
2022-11-28T05:09:48.922Z,72.78
2022-11-28T05:13:51.129Z,75.85
2022-11-28T05:17:52.922Z,82.97
2022-11-28T05:21:54.801Z,71.07
2022-11-28T05:25:56.448Z,83.00
2022-11-28T05:29:58.398Z,79.82
2022-11-28T05:33:59.999Z,79.40
2022-11-28T05:38:02.038Z,78.35
2022-11-28T05:42:03.985Z,76.40
2022-11-28T05:46:06.837Z,78.53
2022-11-28T05:50:08.806Z,79.18
2022-11-28T05:54:10.858Z,74.75
2022-11-28T05:58:12.966Z,76.10
2022-11-28T06:02:14.987Z,80.70
2022-11-28T06:06:21.913Z,73.28
2022-11-28T06:10:23.732Z,77.40
2022-11-28T06:14:25.591Z,70.85
2022-11-28T06:18:27.721Z,76.03
2022-11-28T06:22:29.361Z,82.13
2022-11-28T06:26:31.479Z,74.47
2022-11-28T06:30:33.288Z,83.07
2022-11-28T06:34:35.240Z,76.50
2022-11-28T06:38:37.476Z,85.20
2022-11-28T06:42:39.219Z,73.90
2022-11-28T06:46:42.112Z,67.57
2022-11-28T06:50:43.918Z,71.63
2022-11-28T06:54:45.866Z,76.90
2022-11-28T06:58:53.271Z,65.72
2022-11-28T07:02:55.152Z,72.22
2022-11-28T07:06:57.036Z,73.35
2022-11-28T07:11:06.477Z,77.80
2022-11-28T07:15:08.393Z,70.13
2022-11-28T07:19:11.265Z,74.53
2022-11-28T07:23:13.001Z,68.55
2022-11-28T07:27:14.882Z,69.85
2022-11-28T07:31:21.965Z,67.82
2022-11-28T07:35:24.422Z,65.93
2022-11-28T07:39:26.577Z,71.40
2022-11-28T07:43:28.607Z,62.17
2022-11-28T07:47:30.677Z,61.90
2022-11-28T07:51:34.015Z,61.55
2022-11-28T07:55:36.385Z,61.35
2022-11-28T07:59:38.278Z,58.55
2022-11-28T08:03:40.641Z,59.75
2022-11-28T08:07:42.701Z,59.80
2022-11-28T08:11:44.476Z,57.55
2022-11-28T08:15:46.398Z,62.92
2022-11-28T08:19:48.206Z,64.40
2022-11-28T08:23:51.858Z,65.07
2022-11-28T08:27:53.571Z,67.03
2022-11-28T08:31:56.649Z,60.53
2022-11-28T08:35:58.171Z,62.38
2022-11-28T08:40:00.023Z,63.22
2022-11-28T08:44:02.082Z,60.40
2022-11-28T08:48:04.571Z,63.22
2022-11-28T08:52:06.904Z,65.93
2022-11-28T08:56:09.619Z,64.68
2022-11-28T09:00:11.929Z,67.40
2022-11-28T09:04:13.924Z,61.80
2022-11-28T09:08:17.601Z,64.20
2022-11-28T09:12:19.438Z,71.07
2022-11-28T09:16:21.442Z,66.15
2022-11-28T09:20:23.285Z,60.97
2022-11-28T09:24:25.279Z,63.90
2022-11-28T09:28:28.803Z,61.03
2022-11-28T09:32:30.669Z,67.88
2022-11-28T09:36:32.726Z,59.75
2022-11-28T09:40:44.635Z,62.15
2022-11-28T09:44:54.744Z,60.33
2022-11-28T09:49:00.353Z,57.55
2022-11-28T09:53:17.781Z,56.97
2022-11-28T09:57:34.199Z,50.88
2022-11-28T10:02:01.425Z,47.97
2022-11-28T10:06:23.129Z,48.17
2022-11-28T10:11:10.802Z,49.97
2022-11-28T10:15:20.258Z,49.88
2022-11-28T10:24:01.308Z,48.33
2022-11-28T10:28:10.259Z,45.38
2022-11-28T10:32:17.713Z,50.47
2022-11-28T10:36:26.464Z,51.20
2022-11-28T10:40:46.997Z,46.20
2022-11-28T10:45:30.182Z,47.17
2022-11-28T10:49:49.139Z,45.15
2022-11-28T10:54:28.081Z,45.78
2022-11-28T10:58:56.317Z,44.28
2022-11-28T11:03:02.307Z,43.87
2022-11-28T11:07:29.875Z,47.25
2022-11-28T11:11:41.829Z,51.45
2022-11-28T11:15:45.932Z,47.97
2022-11-28T11:19:47.687Z,47.65
2022-11-28T11:24:10.139Z,52.78
2022-11-28T11:28:27.218Z,53.92
2022-11-28T11:32:30.727Z,53.95
2022-11-28T11:36:35.964Z,54.63
2022-11-28T11:40:38.204Z,58.72
2022-11-28T11:44:39.929Z,57.75
2022-11-28T11:48:43.284Z,61.83
2022-11-28T11:53:00.798Z,59.60
2022-11-28T11:57:25.374Z,63.85
2022-11-28T12:01:26.494Z,70.22
2022-11-28T12:05:52.303Z,66.93
2022-11-28T12:10:01.738Z,68.65
2022-11-28T12:14:28.060Z,64.95
2022-11-28T12:18:43.540Z,62.63
2022-11-28T12:23:27.280Z,61.70
2022-11-28T12:28:06.909Z,59.70
2022-11-28T12:32:31.517Z,53.50
2022-11-28T12:36:40.665Z,46.60
2022-11-28T12:41:14.054Z,45.28
2022-11-28T12:45:20.328Z,42.75
2022-11-28T12:49:44.937Z,44.35
2022-11-28T12:54:18.786Z,42.70
2022-11-28T12:58:34.233Z,43.83
2022-11-28T13:03:05.233Z,42.20
2022-11-28T13:07:32.328Z,37.90
2022-11-28T13:12:07.554Z,42.03
2022-11-28T13:16:35.145Z,41.40
2022-11-28T13:20:49.520Z,39.28
2022-11-28T13:25:20.726Z,39.65
2022-11-28T13:29:36.001Z,41.05
2022-11-28T13:33:53.569Z,38.65
2022-11-28T13:38:36.569Z,41.20
2022-11-28T13:43:04.441Z,40.25
2022-11-28T13:47:36.735Z,39.95
2022-11-28T13:51:38.881Z,41.35
2022-11-28T13:55:46.732Z,40.60
2022-11-28T13:59:57.166Z,37.22
2022-11-28T14:03:58.947Z,39.60
2022-11-28T14:08:03.020Z,43.10
2022-11-28T14:12:21.053Z,44.75
2022-11-28T14:16:52.061Z,48.95
2022-11-28T14:20:57.439Z,59.63
2022-11-28T14:25:11.265Z,53.97
2022-11-28T14:29:26.744Z,52.30
2022-11-28T14:33:42.425Z,49.45
2022-11-28T14:37:53.015Z,53.58
2022-11-28T14:42:04.632Z,52.22
2022-11-28T14:46:15.389Z,52.50
2022-11-28T14:50:18.208Z,45.05
2022-11-28T14:54:35.507Z,48.40
2022-11-28T14:58:39.866Z,56.58
2022-11-28T15:03:09.339Z,57.03
2022-11-28T15:07:29.491Z,51.35
2022-11-28T15:12:00.535Z,50.38
2022-11-28T15:16:11.470Z,48.65
2022-11-28T15:20:21.736Z,54.03
2022-11-28T15:24:25.215Z,51.13
2022-11-28T15:28:29.164Z,51.70
2022-11-28T15:32:31.840Z,49.78
2022-11-28T15:36:39.224Z,49.28
2022-11-28T15:40:50.651Z,48.63
2022-11-28T15:45:06.099Z,49.85
2022-11-28T15:49:34.379Z,50.15
2022-11-28T15:53:42.314Z,52.17
2022-11-28T15:57:44.286Z,55.72
2022-11-28T16:01:46.903Z,48.97
2022-11-28T16:05:51.705Z,55.13
2022-11-28T16:09:58.450Z,51.78
2022-11-28T16:14:07.488Z,47.92
2022-11-28T16:18:15.224Z,47.47
2022-11-28T16:22:23.083Z,48.80
2022-11-28T16:26:36.545Z,50.28
2022-11-28T16:30:42.823Z,49.22
2022-11-28T16:34:50.713Z,45.80
2022-11-28T16:39:03.202Z,76.65
2022-11-28T16:43:06.195Z,46.22
2022-11-28T16:47:25.470Z,48.22
2022-11-28T16:51:34.227Z,80.68
2022-11-28T16:55:40.750Z,47.53
2022-11-28T16:59:44.439Z,44.80
2022-11-28T17:03:52.058Z,41.65
2022-11-28T17:07:54.364Z,45.38
2022-11-28T17:12:02.009Z,44.83
2022-11-28T17:16:04.024Z,46.03
2022-11-28T17:20:06.544Z,46.15
2022-11-28T17:24:21.045Z,43.97
2022-11-28T17:28:27.788Z,44.17
2022-11-28T17:32:31.113Z,49.97
2022-11-28T17:36:32.901Z,46.88
2022-11-28T17:40:36.455Z,45.40
2022-11-28T17:44:39.090Z,46.92
2022-11-28T17:48:41.123Z,45.08
2022-11-28T17:52:43.289Z,44.65
2022-11-28T17:56:46.371Z,46.63
2022-11-28T18:00:48.548Z,51.47
2022-11-28T18:04:50.448Z,46.25
2022-11-28T18:08:52.590Z,46.13
2022-11-28T18:12:55.450Z,51.40
2022-11-28T18:17:00.838Z,49.67
2022-11-28T18:21:03.316Z,49.83
2022-11-28T18:25:08.016Z,47.60
2022-11-28T18:29:10.078Z,48.50
2022-11-28T18:33:14.265Z,51.25
2022-11-28T18:37:15.983Z,51.03
2022-11-28T18:41:18.135Z,55.53
2022-11-28T18:45:20.997Z,53.10
2022-11-28T18:49:23.212Z,53.53
2022-11-28T18:53:24.941Z,49.00
2022-11-28T18:57:31.162Z,47.90
2022-11-28T19:01:34.641Z,52.45
2022-11-28T19:05:41.951Z,53.75
2022-11-28T19:09:45.425Z,50.17
2022-11-28T19:13:48.793Z,48.28
2022-11-28T19:17:50.649Z,48.22
2022-11-28T19:21:52.707Z,43.80
2022-11-28T19:25:54.765Z,45.78
2022-11-28T19:29:56.858Z,46.75
2022-11-28T19:34:02.007Z,46.00
2022-11-28T19:38:05.866Z,46.97
2022-11-28T19:42:08.119Z,45.03
2022-11-28T19:46:11.206Z,44.90
2022-11-28T19:50:13.623Z,40.33
2022-11-28T19:54:19.534Z,41.53
2022-11-28T19:58:22.000Z,39.60
2022-11-28T20:02:23.834Z,40.92
2022-11-28T20:06:28.877Z,40.65
2022-11-28T20:10:30.621Z,39.95
2022-11-28T20:14:32.660Z,39.97
2022-11-28T20:18:36.960Z,39.30
2022-11-28T20:22:39.140Z,32.45
2022-11-28T20:26:43.531Z,33.50
2022-11-28T20:30:45.417Z,34.03
2022-11-28T20:34:47.466Z,32.33
2022-11-28T20:38:50.099Z,32.40
2022-11-28T20:42:51.847Z,30.77
2022-11-28T20:46:53.924Z,30.00
2022-11-28T20:50:55.712Z,30.70
2022-11-28T20:54:57.635Z,30.73
2022-11-28T20:59:01.811Z,28.23
2022-11-28T21:03:03.644Z,29.45
2022-11-28T21:07:05.603Z,27.10
2022-11-28T21:11:10.991Z,28.65
2022-11-28T21:15:12.891Z,32.20
2022-11-28T21:19:14.761Z,29.17
2022-11-28T21:23:16.709Z,28.13
2022-11-28T21:27:18.669Z,25.77
2022-11-28T21:31:26.688Z,29.15
2022-11-28T21:35:28.376Z,30.00
2022-11-28T21:39:30.365Z,27.08
2022-11-28T21:43:32.299Z,29.02
2022-11-28T21:47:34.356Z,28.20
2022-11-28T21:51:36.056Z,32.38
2022-11-28T21:55:37.993Z,30.00
2022-11-28T21:59:39.694Z,32.05
2022-11-28T22:03:43.676Z,33.42
2022-11-28T22:07:45.572Z,39.65
2022-11-28T22:11:47.564Z,34.33
2022-11-28T22:15:50.653Z,35.97
2022-11-28T22:19:52.389Z,38.70
2022-11-28T22:23:54.593Z,38.90
2022-11-28T22:27:56.662Z,36.55
2022-11-28T22:31:58.588Z,35.80
2022-11-28T22:36:20.985Z,37.28
2022-11-28T22:40:22.696Z,33.90
2022-11-28T22:44:24.680Z,36.70
2022-11-28T22:48:29.936Z,38.53
2022-11-28T22:52:32.334Z,36.45
2022-11-28T22:56:34.668Z,35.20
2022-11-28T23:00:37.170Z,38.35
2022-11-28T23:04:38.842Z,51.45
2022-11-28T23:08:41.436Z,43.70
2022-11-28T23:12:43.124Z,36.05
2022-11-28T23:16:46.052Z,35.75
2022-11-28T23:20:47.898Z,33.00
2022-11-28T23:24:49.891Z,34.35
2022-11-28T23:28:52.549Z,35.95
2022-11-28T23:32:54.222Z,36.85
2022-11-28T23:36:56.102Z,36.70
2022-11-28T23:40:57.870Z,32.50
2022-11-28T23:44:59.700Z,30.48
2022-11-28T23:49:01.650Z,33.58
2022-11-28T23:53:03.336Z,32.05
2022-11-28T23:57:05.256Z,31.73
